createdAt,value
2022-09-06T00:00:18.835Z,7.72
2022-09-06T00:02:46.231Z,7.10
2022-09-06T00:05:13.693Z,9.25
2022-09-06T00:07:41.246Z,7.68
2022-09-06T00:10:09.652Z,10.10
2022-09-06T00:12:37.345Z,9.35
2022-09-06T00:15:05.541Z,8.82
2022-09-06T00:17:33.303Z,11.85
2022-09-06T00:20:00.679Z,9.40
2022-09-06T00:22:27.515Z,11.35
2022-09-06T00:24:54.426Z,10.18
2022-09-06T00:27:21.447Z,10.93
2022-09-06T00:29:48.363Z,12.18
2022-09-06T00:32:15.245Z,9.20
2022-09-06T00:34:42.340Z,12.63
2022-09-06T00:37:09.198Z,16.30
2022-09-06T00:39:36.268Z,10.45
2022-09-06T00:42:07.465Z,11.25
2022-09-06T00:44:34.375Z,10.32
2022-09-06T00:47:01.620Z,14.27
2022-09-06T00:49:32.947Z,12.70
2022-09-06T00:52:07.825Z,10.23
2022-09-06T00:54:35.202Z,15.15
2022-09-06T00:57:02.498Z,10.05
2022-09-06T00:59:32.033Z,14.73
2022-09-06T01:01:59.231Z,9.80
2022-09-06T01:04:27.668Z,16.08
2022-09-06T01:07:06.094Z,12.60
2022-09-06T01:09:42.035Z,11.40
2022-09-06T01:12:42.277Z,11.30
2022-09-06T01:15:53.216Z,9.00
2022-09-06T01:18:30.130Z,11.10
2022-09-06T01:21:24.610Z,10.18
2022-09-06T01:24:18.913Z,9.90
2022-09-06T01:27:13.980Z,11.80
2022-09-06T01:29:49.977Z,10.50
2022-09-06T01:32:56.087Z,10.13
2022-09-06T01:35:29.262Z,15.52
2022-09-06T01:37:57.686Z,12.07
2022-09-06T01:40:24.880Z,10.15
2022-09-06T01:42:53.579Z,12.15
2022-09-06T01:45:27.408Z,11.90
2022-09-06T01:48:23.614Z,11.30
2022-09-06T01:51:08.149Z,11.77
2022-09-06T01:54:04.561Z,11.43
2022-09-06T01:59:51.285Z,13.48
2022-09-06T02:02:30.095Z,12.55
2022-09-06T02:05:04.945Z,13.27
2022-09-06T02:07:34.814Z,14.35
2022-09-06T02:10:15.049Z,14.93
2022-09-06T02:12:45.466Z,13.57
2022-09-06T02:15:21.505Z,15.48
2022-09-06T02:18:13.423Z,14.88
2022-09-06T02:20:48.889Z,16.85
2022-09-06T02:25:50.529Z,12.70
2022-09-06T02:28:17.925Z,12.70
2022-09-06T02:30:59.150Z,13.73
2022-09-06T02:33:30.509Z,14.82
2022-09-06T02:36:04.540Z,14.07
2022-09-06T02:38:34.467Z,12.80
2022-09-06T02:41:01.950Z,17.02
2022-09-06T02:43:28.921Z,12.13
2022-09-06T02:45:55.892Z,12.68
2022-09-06T02:48:22.880Z,12.63
2022-09-06T02:50:50.005Z,13.13
2022-09-06T02:53:17.104Z,12.05
2022-09-06T02:55:46.042Z,15.48
2022-09-06T02:58:13.387Z,12.32
2022-09-06T03:00:40.629Z,13.32
2022-09-06T03:03:08.142Z,13.23
2022-09-06T03:05:35.552Z,12.48
2022-09-06T03:08:03.265Z,13.27
2022-09-06T03:10:30.537Z,12.52
2022-09-06T03:12:58.784Z,12.65
2022-09-06T03:15:25.800Z,13.40
2022-09-06T03:17:56.714Z,15.05
2022-09-06T03:20:25.138Z,13.13
2022-09-06T03:22:52.319Z,13.38
2022-09-06T03:25:19.273Z,13.13
2022-09-06T03:27:46.285Z,14.85
2022-09-06T03:30:13.640Z,18.50
2022-09-06T03:32:40.537Z,14.75
2022-09-06T03:35:07.880Z,14.68
2022-09-06T03:37:35.264Z,14.45
2022-09-06T03:40:03.963Z,14.48
2022-09-06T03:42:31.065Z,14.23
2022-09-06T03:44:58.122Z,18.45
2022-09-06T03:47:24.972Z,15.15
2022-09-06T03:49:51.869Z,15.18
2022-09-06T03:52:18.807Z,16.85
2022-09-06T03:54:45.787Z,16.92
2022-09-06T03:57:12.683Z,16.45
2022-09-06T03:59:39.594Z,17.48
2022-09-06T04:02:06.582Z,15.82
2022-09-06T04:04:34.571Z,17.38
2022-09-06T04:07:01.466Z,15.93
2022-09-06T04:09:28.523Z,16.52
2022-09-06T04:11:55.388Z,16.30
2022-09-06T04:14:22.302Z,16.17
2022-09-06T04:16:49.988Z,18.20
2022-09-06T04:19:17.090Z,16.95
2022-09-06T04:21:44.081Z,18.23
2022-09-06T04:24:10.975Z,21.75
2022-09-06T04:26:38.170Z,19.80
2022-09-06T04:29:05.495Z,19.60
2022-09-06T04:31:32.552Z,18.77
2022-09-06T04:33:59.700Z,22.25
2022-09-06T04:36:26.648Z,24.50
2022-09-06T04:38:54.736Z,22.52
2022-09-06T04:41:22.064Z,27.75
2022-09-06T04:43:49.446Z,25.35
2022-09-06T04:46:20.204Z,25.33
2022-09-06T04:48:51.127Z,26.63
2022-09-06T04:51:18.765Z,29.23
2022-09-06T04:53:46.025Z,33.08
2022-09-06T04:56:18.316Z,34.90
2022-09-06T04:58:46.754Z,31.25
2022-09-06T05:01:14.500Z,32.47
2022-09-06T05:03:41.724Z,29.23
2022-09-06T05:06:18.214Z,31.77
2022-09-06T05:08:45.165Z,33.83
2022-09-06T05:11:12.447Z,36.92
2022-09-06T05:13:39.786Z,32.30
2022-09-06T05:16:08.986Z,39.47
2022-09-06T05:18:36.703Z,35.45
2022-09-06T05:21:03.797Z,30.42
2022-09-06T05:23:31.355Z,34.35
2022-09-06T05:25:58.505Z,34.60
2022-09-06T05:28:25.639Z,35.55
2022-09-06T05:30:52.814Z,29.83
2022-09-06T05:33:22.336Z,29.38
2022-09-06T05:35:50.119Z,31.10
2022-09-06T05:38:17.097Z,33.65
2022-09-06T05:40:44.209Z,30.00
2022-09-06T05:43:11.509Z,31.35
2022-09-06T05:45:38.639Z,33.17
2022-09-06T05:48:05.712Z,32.15
2022-09-06T05:50:32.713Z,29.13
2022-09-06T05:52:59.702Z,28.00
2022-09-06T05:55:26.702Z,27.65
2022-09-06T05:57:53.593Z,30.05
2022-09-06T06:00:20.757Z,27.27
2022-09-06T06:02:48.791Z,26.40
2022-09-06T06:05:16.462Z,29.75
2022-09-06T06:07:43.546Z,25.40
2022-09-06T06:10:10.995Z,27.80
2022-09-06T06:12:37.940Z,26.40
2022-09-06T06:15:08.282Z,27.42
2022-09-06T06:17:35.173Z,24.33
2022-09-06T06:20:02.379Z,24.98
2022-09-06T06:22:29.326Z,24.27
2022-09-06T06:24:56.191Z,24.23
2022-09-06T06:27:23.116Z,25.58
2022-09-06T06:29:50.612Z,20.33
2022-09-06T06:32:17.528Z,26.90
2022-09-06T06:34:44.438Z,22.50
2022-09-06T06:37:11.365Z,19.25
2022-09-06T06:39:38.713Z,25.13
2022-09-06T06:42:05.846Z,21.27
2022-09-06T06:44:49.170Z,20.77
2022-09-06T06:47:16.181Z,36.55
2022-09-06T06:49:43.201Z,19.08
2022-09-06T06:52:10.216Z,28.65
2022-09-06T06:54:37.506Z,21.00
2022-09-06T06:57:05.033Z,21.23
2022-09-06T06:59:32.141Z,21.77
2022-09-06T07:01:59.377Z,15.35
2022-09-06T07:04:26.457Z,15.93
2022-09-06T07:12:30.638Z,22.13
2022-09-06T07:14:57.524Z,32.22
2022-09-06T07:17:24.479Z,30.88
2022-09-06T07:22:39.619Z,26.00
2022-09-06T07:25:08.441Z,22.40
2022-09-06T07:27:50.852Z,13.70
2022-09-06T07:30:19.895Z,35.30
2022-09-06T07:32:47.192Z,46.30
2022-09-06T07:35:14.292Z,23.45
2022-09-06T07:37:41.324Z,26.80
2022-09-06T07:40:09.077Z,19.20
2022-09-06T07:42:36.839Z,17.45
2022-09-06T07:45:05.636Z,25.48
2022-09-06T07:53:09.461Z,13.20
2022-09-06T07:55:40.098Z,30.15
2022-09-06T07:58:06.955Z,14.02
2022-09-06T08:00:33.891Z,16.05
2022-09-06T08:03:00.862Z,14.25
2022-09-06T08:11:01.914Z,19.50
2022-09-06T08:13:29.422Z,17.10
2022-09-06T08:16:00.849Z,14.35
2022-09-06T08:18:27.984Z,13.40
2022-09-06T08:20:55.300Z,10.63
2022-09-06T08:23:22.591Z,12.05
2022-09-06T08:25:59.147Z,15.48
2022-09-06T08:28:28.773Z,15.68
2022-09-06T08:31:04.791Z,17.15
2022-09-06T08:33:31.897Z,22.52
2022-09-06T08:35:59.337Z,15.32
2022-09-06T08:38:27.473Z,18.73
2022-09-06T08:40:55.535Z,9.40
2022-09-06T08:43:23.254Z,13.52
2022-09-06T08:45:56.954Z,9.02
2022-09-06T08:48:27.222Z,12.25
2022-09-06T08:51:08.863Z,12.25
2022-09-06T08:53:42.900Z,15.05
2022-09-06T08:56:20.158Z,15.43
2022-09-06T08:59:06.754Z,13.00
2022-09-06T09:02:03.145Z,15.60
2022-09-06T09:04:32.268Z,10.45
2022-09-06T09:07:07.958Z,15.52
2022-09-06T09:09:35.658Z,17.55
2022-09-06T09:12:02.931Z,9.80
2022-09-06T09:14:36.471Z,17.52
2022-09-06T09:17:10.455Z,11.48
2022-09-06T09:19:39.527Z,9.38
2022-09-06T09:22:06.632Z,11.48
2022-09-06T09:24:34.675Z,11.93
2022-09-06T09:27:11.230Z,10.75
2022-09-06T09:32:45.936Z,11.23
2022-09-06T09:35:42.342Z,9.63
2022-09-06T09:38:27.921Z,12.60
2022-09-06T09:40:57.670Z,10.55
2022-09-06T09:43:33.301Z,11.30
2022-09-06T09:46:22.266Z,8.73
2022-09-06T09:49:09.903Z,9.70
2022-09-06T09:51:36.856Z,5.20
2022-09-06T09:54:09.872Z,8.90
2022-09-06T09:56:47.831Z,11.70
2022-09-06T09:59:25.330Z,11.35
2022-09-06T10:02:00.093Z,9.38
2022-09-06T10:04:45.968Z,7.93
2022-09-06T10:07:24.225Z,8.32
2022-09-06T10:10:02.204Z,5.00
2022-09-06T10:12:30.499Z,5.20
2022-09-06T10:14:57.916Z,6.10
2022-09-06T10:17:30.232Z,8.63
2022-09-06T10:19:59.535Z,5.47
2022-09-06T10:22:31.060Z,11.07
2022-09-06T10:25:30.582Z,9.18
2022-09-06T10:28:12.750Z,8.50
2022-09-06T10:31:25.726Z,10.35
2022-09-06T10:33:55.556Z,11.10
2022-09-06T10:36:31.921Z,8.93
2022-09-06T10:39:04.264Z,12.65
2022-09-06T10:41:53.547Z,8.75
2022-09-06T10:44:36.098Z,11.73
2022-09-06T10:47:15.069Z,10.23
2022-09-06T10:49:46.350Z,9.15
2022-09-06T10:52:20.139Z,12.68
2022-09-06T10:54:47.424Z,11.32
2022-09-06T11:00:13.151Z,10.15
2022-09-06T11:05:44.313Z,8.45
2022-09-06T11:08:53.262Z,9.13
2022-09-06T11:11:35.597Z,11.80
2022-09-06T11:14:09.556Z,17.45
2022-09-06T11:17:04.962Z,11.27
2022-09-06T11:19:54.989Z,8.07
2022-09-06T11:22:54.172Z,9.23
2022-09-06T11:25:50.554Z,11.60
2022-09-06T11:28:24.342Z,11.63
2022-09-06T11:30:57.173Z,7.88
2022-09-06T11:33:30.697Z,11.20
2022-09-06T11:36:28.934Z,5.70
2022-09-06T11:39:02.330Z,9.07
2022-09-06T11:41:34.032Z,6.78
2022-09-06T11:44:01.669Z,10.57
2022-09-06T11:46:34.934Z,7.63
2022-09-06T11:49:27.273Z,10.63
2022-09-06T11:51:54.346Z,9.38
2022-09-06T11:54:23.937Z,10.48
2022-09-06T11:57:01.283Z,10.93
2022-09-06T11:59:47.775Z,8.40
2022-09-06T12:02:41.229Z,11.68
2022-09-06T12:05:16.252Z,8.88
2022-09-06T12:08:21.467Z,6.60
2022-09-06T12:10:57.559Z,7.10
2022-09-06T12:13:46.873Z,10.70
2022-09-06T12:16:15.394Z,8.65
2022-09-06T12:18:48.362Z,9.88
2022-09-06T12:21:52.282Z,11.10
2022-09-06T12:24:34.284Z,12.05
2022-09-06T12:27:21.014Z,12.85
2022-09-06T12:30:29.974Z,9.95
2022-09-06T12:32:58.580Z,14.63
2022-09-06T12:38:24.259Z,9.90
2022-09-06T12:40:54.826Z,6.13
2022-09-06T12:43:21.890Z,9.70
2022-09-06T12:45:51.776Z,12.57
2022-09-06T12:48:35.312Z,9.18
2022-09-06T12:51:02.523Z,9.60
2022-09-06T12:53:31.632Z,7.53
2022-09-06T12:56:06.946Z,14.02
2022-09-06T13:01:24.821Z,14.55
2022-09-06T13:04:07.144Z,10.32
2022-09-06T13:06:39.162Z,10.32
2022-09-06T13:09:11.414Z,8.70
2022-09-06T13:11:42.430Z,15.18
2022-09-06T13:14:34.239Z,10.70
2022-09-06T13:17:01.387Z,11.63
2022-09-06T13:19:32.953Z,8.25
2022-09-06T13:22:01.867Z,13.93
2022-09-06T13:24:35.588Z,12.18
2022-09-06T13:27:30.735Z,13.35
2022-09-06T13:30:06.967Z,12.50
2022-09-06T13:32:34.404Z,15.98
2022-09-06T13:35:01.784Z,8.43
2022-09-06T13:37:31.967Z,12.88
2022-09-06T13:39:59.889Z,13.93
2022-09-06T13:42:31.303Z,13.05
2022-09-06T13:45:02.105Z,13.32
2022-09-06T13:47:29.925Z,15.80
2022-09-06T13:49:56.845Z,17.48
2022-09-06T13:52:23.795Z,8.68
2022-09-06T13:54:50.712Z,16.27
2022-09-06T13:57:22.229Z,13.48
2022-09-06T13:59:51.085Z,14.68
2022-09-06T14:02:19.885Z,13.57
2022-09-06T14:04:47.079Z,18.02
2022-09-06T14:07:14.093Z,17.42
2022-09-06T14:09:41.071Z,10.13
2022-09-06T14:12:09.232Z,13.20
2022-09-06T14:14:36.546Z,14.82
2022-09-06T14:17:05.287Z,11.60
2022-09-06T14:19:32.188Z,12.20
2022-09-06T14:21:59.102Z,11.10
2022-09-06T14:24:26.008Z,11.32
2022-09-06T14:26:52.955Z,12.45
2022-09-06T14:29:19.938Z,18.40
2022-09-06T14:31:48.405Z,8.98
2022-09-06T14:34:15.591Z,11.32
2022-09-06T14:36:42.731Z,13.35
2022-09-06T14:39:09.686Z,7.60
2022-09-06T14:41:36.920Z,17.20
2022-09-06T14:44:04.202Z,14.48
2022-09-06T14:46:31.191Z,16.05
2022-09-06T14:49:03.430Z,13.00
2022-09-06T14:51:30.847Z,10.45
2022-09-06T14:54:01.582Z,11.98
2022-09-06T14:56:28.473Z,12.73
2022-09-06T14:58:57.955Z,16.70
2022-09-06T15:01:28.598Z,13.35
2022-09-06T15:04:00.825Z,14.63
2022-09-06T15:06:28.156Z,11.30
2022-09-06T15:08:59.106Z,14.68
2022-09-06T15:11:38.576Z,17.17
2022-09-06T15:14:08.224Z,11.93
2022-09-06T15:16:36.239Z,15.77
2022-09-06T15:19:03.861Z,16.30
2022-09-06T15:21:31.966Z,16.65
2022-09-06T15:23:59.847Z,18.20
2022-09-06T15:26:26.920Z,15.25
2022-09-06T15:28:53.838Z,13.27
2022-09-06T15:31:21.602Z,12.20
2022-09-06T15:33:51.205Z,19.02
2022-09-06T15:36:18.617Z,86.10
2022-09-06T15:38:48.125Z,20.23
2022-09-06T15:41:18.888Z,12.70
2022-09-06T15:43:49.338Z,19.05
2022-09-06T15:46:21.201Z,19.00
2022-09-06T15:48:51.107Z,24.95
2022-09-06T15:51:20.206Z,16.85
2022-09-06T15:53:47.808Z,12.52
2022-09-06T15:56:16.464Z,11.40
2022-09-06T15:58:45.948Z,15.63
2022-09-06T16:01:22.550Z,17.35
2022-09-06T16:04:03.564Z,18.90
2022-09-06T16:06:34.326Z,13.40
2022-09-06T16:09:17.699Z,14.55
2022-09-06T16:11:44.937Z,8.80
2022-09-06T16:14:14.269Z,17.48
2022-09-06T16:16:42.531Z,13.07
2022-09-06T16:19:10.899Z,19.88
2022-09-06T16:21:39.853Z,14.38
2022-09-06T16:24:09.502Z,15.45
2022-09-06T16:26:38.472Z,10.23
2022-09-06T16:29:07.132Z,13.15
2022-09-06T16:31:39.743Z,14.30
2022-09-06T16:34:11.848Z,18.25
2022-09-06T16:36:39.321Z,19.80
2022-09-06T16:39:07.372Z,10.27
2022-09-06T16:41:42.563Z,17.35
2022-09-06T16:44:14.538Z,15.15
2022-09-06T16:46:42.038Z,18.80
2022-09-06T16:49:09.830Z,11.35
2022-09-06T16:51:37.023Z,20.40
2022-09-06T16:54:04.542Z,17.15
2022-09-06T16:56:35.903Z,16.55
2022-09-06T16:59:08.980Z,21.70
2022-09-06T17:01:37.857Z,24.95
2022-09-06T17:04:05.740Z,22.50
2022-09-06T17:06:34.171Z,21.55
2022-09-06T17:09:01.188Z,14.70
2022-09-06T17:11:28.974Z,14.50
2022-09-06T17:13:56.943Z,13.35
2022-09-06T17:16:43.111Z,13.65
2022-09-06T17:19:10.785Z,13.93
2022-09-06T17:21:39.233Z,18.55
2022-09-06T17:24:08.044Z,13.00
2022-09-06T17:26:37.206Z,18.73
2022-09-06T17:29:04.720Z,18.63
2022-09-06T17:31:31.943Z,17.90
2022-09-06T17:34:01.914Z,15.25
2022-09-06T17:36:30.978Z,25.42
2022-09-06T17:39:03.768Z,20.85
2022-09-06T17:41:46.003Z,14.20
2022-09-06T17:44:14.933Z,16.33
2022-09-06T17:46:56.947Z,17.45
2022-09-06T17:49:30.586Z,19.60
2022-09-06T17:51:58.077Z,18.30
2022-09-06T17:54:25.254Z,21.60
2022-09-06T17:56:52.301Z,18.50
2022-09-06T17:59:19.802Z,13.88
2022-09-06T18:01:46.805Z,19.95
2022-09-06T18:04:14.913Z,24.48
2022-09-06T18:06:43.184Z,19.00
2022-09-06T18:09:14.744Z,18.00
2022-09-06T18:11:42.586Z,19.40
2022-09-06T18:14:11.635Z,16.45
2022-09-06T18:16:40.361Z,15.85
2022-09-06T18:19:08.625Z,15.85
2022-09-06T18:21:38.025Z,17.77
2022-09-06T18:24:05.753Z,16.85
2022-09-06T18:26:32.921Z,14.80
2022-09-06T18:28:59.950Z,15.27
2022-09-06T18:31:28.469Z,17.10
2022-09-06T18:33:59.901Z,21.90
2022-09-06T18:36:32.043Z,21.08
2022-09-06T18:39:02.909Z,20.83
2022-09-06T18:41:50.855Z,15.95
2022-09-06T18:44:18.486Z,19.73
2022-09-06T18:46:45.415Z,17.42
2022-09-06T18:49:14.987Z,19.63
2022-09-06T18:51:42.585Z,16.98
2022-09-06T18:54:10.938Z,18.52
2022-09-06T18:56:38.545Z,22.23
2022-09-06T18:59:06.058Z,13.23
2022-09-06T19:01:35.012Z,21.05
2022-09-06T19:04:03.754Z,22.20
2022-09-06T19:06:32.558Z,22.58
2022-09-06T19:09:01.361Z,21.20
2022-09-06T19:11:29.153Z,21.00
2022-09-06T19:13:57.408Z,26.45
2022-09-06T19:16:26.757Z,23.73
2022-09-06T19:18:57.646Z,17.42
2022-09-06T19:21:25.672Z,32.47
2022-09-06T19:24:01.379Z,16.98
2022-09-06T19:26:31.585Z,13.85
2022-09-06T19:29:00.639Z,15.80
2022-09-06T19:31:31.265Z,18.10
2022-09-06T19:33:58.755Z,21.08
2022-09-06T19:36:27.790Z,19.25
2022-09-06T19:39:04.942Z,25.77
2022-09-06T19:41:36.574Z,22.00
2022-09-06T19:44:05.823Z,20.30
2022-09-06T19:46:34.915Z,18.85
2022-09-06T19:49:02.287Z,17.02
2022-09-06T19:51:29.554Z,16.20
2022-09-06T19:54:00.425Z,13.48
2022-09-06T19:56:33.853Z,14.20
2022-09-06T19:59:06.169Z,11.40
2022-09-06T20:01:34.563Z,11.82
2022-09-06T20:04:03.440Z,15.48
2022-09-06T20:06:30.911Z,21.30
2022-09-06T20:08:59.239Z,15.73
2022-09-06T20:11:29.664Z,18.33
2022-09-06T20:13:57.091Z,20.65
2022-09-06T20:16:27.444Z,12.10
2022-09-06T20:18:55.222Z,16.45
2022-09-06T20:21:22.613Z,16.38
2022-09-06T20:23:52.381Z,20.92
2022-09-06T20:26:19.888Z,17.75
2022-09-06T20:28:47.468Z,22.88
2022-09-06T20:31:17.455Z,15.38
2022-09-06T20:33:49.375Z,19.15
2022-09-06T20:36:18.039Z,18.52
2022-09-06T20:38:46.178Z,15.57
2022-09-06T20:41:14.103Z,24.13
2022-09-06T20:43:41.804Z,17.25
2022-09-06T20:46:24.514Z,19.92
2022-09-06T20:48:52.138Z,17.23
2022-09-06T20:51:21.586Z,21.05
2022-09-06T20:53:59.978Z,21.98
2022-09-06T20:56:33.665Z,19.88
2022-09-06T20:59:04.343Z,18.60
2022-09-06T21:01:37.035Z,22.72
2022-09-06T21:04:06.459Z,28.97
2022-09-06T21:06:36.249Z,13.98
2022-09-06T21:14:15.399Z,12.88
2022-09-06T21:16:42.510Z,17.25
2022-09-06T21:19:10.924Z,16.97
2022-09-06T21:21:38.556Z,15.37
2022-09-06T21:24:08.734Z,15.17
2022-09-06T21:26:35.886Z,19.38
2022-09-06T21:29:03.751Z,15.13
2022-09-06T21:31:36.293Z,15.55
2022-09-06T21:34:11.497Z,15.85
2022-09-06T21:36:41.347Z,16.30
2022-09-06T21:39:39.614Z,14.02
2022-09-06T21:42:06.665Z,17.70
2022-09-06T21:44:33.521Z,16.42
2022-09-06T21:47:01.270Z,12.90
2022-09-06T21:49:28.219Z,8.58
2022-09-06T21:54:43.916Z,17.08
2022-09-06T22:00:00.405Z,14.84
2022-09-06T22:02:27.785Z,9.75
2022-09-06T22:04:55.074Z,12.10
2022-09-06T22:09:49.627Z,12.20
2022-09-06T22:12:16.769Z,17.90
2022-09-06T22:14:44.805Z,17.68
2022-09-06T22:17:55.743Z,12.82
2022-09-06T22:20:35.088Z,12.67
2022-09-06T22:23:03.548Z,16.70
2022-09-06T22:25:45.631Z,8.90
2022-09-06T22:28:12.524Z,15.43
2022-09-06T22:30:39.356Z,15.93
2022-09-06T22:33:06.254Z,16.48
2022-09-06T22:35:33.102Z,17.20
2022-09-06T22:38:12.359Z,16.29
2022-09-06T22:40:40.494Z,15.90
2022-09-06T22:43:07.632Z,18.23
2022-09-06T22:45:34.537Z,16.67
2022-09-06T22:48:01.517Z,12.32
2022-09-06T22:53:31.641Z,17.67
2022-09-06T22:55:59.011Z,13.03
2022-09-06T22:58:29.216Z,13.18
2022-09-06T23:00:56.761Z,11.45
2022-09-06T23:03:35.363Z,20.13
